createdAt,value
2019-05-30T00:00:31.817Z,9.55
2019-05-30T00:01:31.874Z,9.41
2019-05-30T00:02:31.813Z,9.43
2019-05-30T00:03:31.791Z,9.46
2019-05-30T00:04:31.780Z,9.48
2019-05-30T00:05:31.804Z,9.41
2019-05-30T00:06:31.753Z,9.43
2019-05-30T00:07:31.763Z,9.50
2019-05-30T00:08:31.754Z,9.58
2019-05-30T00:09:31.731Z,9.48
2019-05-30T00:10:31.712Z,9.48
2019-05-30T00:11:31.690Z,9.48
2019-05-30T00:12:31.757Z,9.59
2019-05-30T00:13:31.696Z,9.54
2019-05-30T00:14:31.724Z,9.51
2019-05-30T00:15:31.676Z,9.59
2019-05-30T00:16:31.661Z,9.58
2019-05-30T00:17:31.626Z,9.61
2019-05-30T00:18:31.667Z,9.58
2019-05-30T00:19:33.936Z,9.58
2019-05-30T00:20:31.626Z,9.46
2019-05-30T00:21:31.590Z,9.44
2019-05-30T00:22:31.576Z,9.34
2019-05-30T00:23:31.629Z,9.36
2019-05-30T00:24:31.553Z,9.32
2019-05-30T00:25:31.565Z,9.26
2019-05-30T00:26:31.566Z,9.22
2019-05-30T00:27:31.521Z,9.16
2019-05-30T00:28:31.557Z,9.19
2019-05-30T00:29:31.544Z,9.26
2019-05-30T00:30:31.513Z,9.22
2019-05-30T00:31:31.475Z,9.25
2019-05-30T00:32:31.482Z,9.26
2019-05-30T00:33:31.460Z,9.18
2019-05-30T00:34:31.521Z,9.14
2019-05-30T00:35:31.437Z,9.06
2019-05-30T00:36:31.446Z,9.10
2019-05-30T00:37:31.434Z,9.21
2019-05-30T00:38:31.439Z,9.23
2019-05-30T00:39:31.452Z,9.13
2019-05-30T00:40:31.926Z,9.13
2019-05-30T00:41:31.373Z,9.21
2019-05-30T00:42:31.380Z,9.19
2019-05-30T00:43:31.372Z,9.10
2019-05-30T00:44:31.337Z,9.22
2019-05-30T00:45:31.393Z,9.14
2019-05-30T00:46:31.335Z,9.16
2019-05-30T00:47:31.307Z,9.03
2019-05-30T00:48:31.320Z,9.04
2019-05-30T00:49:31.294Z,8.92
2019-05-30T00:50:31.276Z,8.88
2019-05-30T00:51:31.289Z,8.70
2019-05-30T00:52:31.907Z,8.76
2019-05-30T00:53:31.246Z,8.78
2019-05-30T00:54:31.241Z,8.81
2019-05-30T00:55:31.213Z,8.74
2019-05-30T00:56:31.269Z,8.73
2019-05-30T00:57:31.197Z,8.73
2019-05-30T00:58:31.209Z,8.78
2019-05-30T00:59:31.197Z,8.88
2019-05-30T01:00:42.921Z,8.94
2019-05-30T01:01:31.193Z,9.04
2019-05-30T01:02:31.133Z,9.14
2019-05-30T01:03:31.146Z,9.03
2019-05-30T01:04:31.113Z,9.10
2019-05-30T01:05:31.124Z,8.92
2019-05-30T01:06:31.116Z,8.97
2019-05-30T01:07:31.123Z,8.84
2019-05-30T01:08:31.068Z,8.71
2019-05-30T01:09:31.075Z,8.70
2019-05-30T01:10:31.046Z,8.71
2019-05-30T01:11:31.055Z,8.69
2019-05-30T01:12:31.071Z,8.71
2019-05-30T01:13:31.009Z,8.76
2019-05-30T01:14:31.030Z,8.69
2019-05-30T01:15:31.011Z,8.67
2019-05-30T01:16:31.022Z,8.69
2019-05-30T01:17:30.996Z,8.71
2019-05-30T01:18:31.041Z,8.64
2019-05-30T01:19:30.944Z,8.66
2019-05-30T01:20:30.941Z,8.71
2019-05-30T01:21:30.924Z,8.81
2019-05-30T01:22:30.921Z,8.78
2019-05-30T01:23:30.977Z,8.74
2019-05-30T01:24:31.863Z,8.74
2019-05-30T01:25:30.880Z,8.71
2019-05-30T01:26:30.888Z,8.81
2019-05-30T01:27:30.866Z,8.70
2019-05-30T01:28:30.875Z,8.73
2019-05-30T01:29:30.879Z,8.70
2019-05-30T01:30:30.821Z,8.76
2019-05-30T01:31:30.817Z,8.87
2019-05-30T01:32:30.828Z,8.81
2019-05-30T01:33:30.800Z,8.70
2019-05-30T01:34:30.844Z,8.69
2019-05-30T01:35:30.807Z,8.81
2019-05-30T01:36:30.756Z,8.87
2019-05-30T01:37:30.750Z,8.88
2019-05-30T01:38:30.762Z,8.76
2019-05-30T01:39:30.751Z,8.70
2019-05-30T01:40:30.758Z,8.71
2019-05-30T01:41:30.757Z,8.69
2019-05-30T01:42:30.710Z,8.53
2019-05-30T01:43:30.690Z,8.52
2019-05-30T01:44:30.694Z,8.53
2019-05-30T01:45:30.709Z,8.52
2019-05-30T01:46:30.680Z,8.55
2019-05-30T01:47:30.633Z,8.61
2019-05-30T01:48:30.627Z,8.60
2019-05-30T01:49:30.627Z,8.55
2019-05-30T01:50:30.607Z,8.64
2019-05-30T01:51:30.614Z,8.53
2019-05-30T01:52:30.618Z,8.66
2019-05-30T01:53:30.582Z,8.74
2019-05-30T01:54:30.561Z,8.73
2019-05-30T01:55:30.572Z,8.76
2019-05-30T01:56:30.587Z,8.78
2019-05-30T01:57:30.550Z,8.70
2019-05-30T01:58:30.554Z,8.70
2019-05-30T01:59:30.504Z,8.74
2019-05-30T02:00:30.496Z,8.70
2019-05-30T02:01:30.583Z,8.79
2019-05-30T02:02:30.488Z,8.88
2019-05-30T02:03:30.487Z,8.84
2019-05-30T02:04:30.490Z,8.82
2019-05-30T02:05:30.442Z,8.71
2019-05-30T02:06:30.508Z,8.78
2019-05-30T02:07:30.447Z,8.69
2019-05-30T02:08:30.424Z,8.64
2019-05-30T02:09:30.414Z,8.66
2019-05-30T02:10:30.381Z,8.52
2019-05-30T02:11:30.369Z,8.53
2019-05-30T02:12:30.396Z,8.66
2019-05-30T02:13:30.382Z,8.52
2019-05-30T02:14:30.358Z,8.53
2019-05-30T02:15:30.359Z,8.63
2019-05-30T02:16:30.317Z,8.56
2019-05-30T02:17:30.380Z,8.67
2019-05-30T02:18:30.318Z,8.53
2019-05-30T02:19:30.313Z,8.55
2019-05-30T02:20:30.294Z,8.45
2019-05-30T02:21:30.310Z,8.41
2019-05-30T02:22:30.304Z,8.45
2019-05-30T02:23:30.247Z,8.31
2019-05-30T02:24:30.241Z,8.19
2019-05-30T02:25:30.228Z,8.19
2019-05-30T02:26:30.233Z,8.19
2019-05-30T02:27:30.245Z,8.16
2019-05-30T02:28:30.246Z,8.20
2019-05-30T02:29:30.187Z,8.16
2019-05-30T02:30:30.196Z,8.19
2019-05-30T02:31:39.009Z,8.28
2019-05-30T02:32:31.187Z,8.30
2019-05-30T02:33:30.203Z,8.31
2019-05-30T02:34:30.120Z,8.30
2019-05-30T02:35:30.121Z,8.36
2019-05-30T02:36:30.145Z,8.33
2019-05-30T02:37:30.109Z,8.36
2019-05-30T02:38:30.149Z,8.38
2019-05-30T02:39:30.060Z,8.45
2019-05-30T02:40:30.051Z,8.37
2019-05-30T02:41:30.063Z,8.37
2019-05-30T02:42:30.054Z,8.34
2019-05-30T02:43:30.044Z,8.30
2019-05-30T02:44:30.049Z,8.31
2019-05-30T02:45:30.003Z,8.30
2019-05-30T02:46:30.015Z,8.33
2019-05-30T02:47:30.000Z,8.28
2019-05-30T02:48:29.981Z,8.18
2019-05-30T02:49:30.008Z,8.12
2019-05-30T02:50:29.976Z,8.18
2019-05-30T02:51:29.931Z,8.28
2019-05-30T02:52:29.923Z,8.28
2019-05-30T02:53:29.935Z,8.34
2019-05-30T02:54:29.908Z,8.36
2019-05-30T02:55:29.917Z,8.36
2019-05-30T02:56:29.915Z,8.41
2019-05-30T02:57:29.861Z,8.45
2019-05-30T02:58:29.880Z,8.42
2019-05-30T02:59:29.856Z,8.44
2019-05-30T03:00:29.894Z,8.42
2019-05-30T03:01:29.859Z,8.52
2019-05-30T03:02:29.810Z,8.52
2019-05-30T03:03:29.800Z,8.49
2019-05-30T03:04:29.806Z,8.55
2019-05-30T03:05:29.812Z,8.67
2019-05-30T03:06:29.812Z,8.60
2019-05-30T03:07:29.796Z,8.70
2019-05-30T03:08:29.746Z,8.70
2019-05-30T03:09:29.733Z,8.73
2019-05-30T03:10:29.752Z,8.69
2019-05-30T03:11:29.761Z,8.63
2019-05-30T03:12:29.721Z,8.69
2019-05-30T03:13:29.729Z,8.71
2019-05-30T03:14:29.681Z,8.74
2019-05-30T03:15:29.680Z,8.71
2019-05-30T03:16:29.756Z,8.71
2019-05-30T03:17:29.660Z,8.71
2019-05-30T03:18:29.659Z,8.53
2019-05-30T03:19:29.643Z,8.69
2019-05-30T03:20:29.615Z,8.66
2019-05-30T03:21:29.649Z,8.55
2019-05-30T03:22:29.626Z,8.53
2019-05-30T03:23:29.659Z,8.66
2019-05-30T03:24:29.593Z,8.64
2019-05-30T03:25:29.575Z,8.69
2019-05-30T03:26:29.544Z,8.70
2019-05-30T03:27:29.622Z,8.73
2019-05-30T03:28:29.536Z,8.67
2019-05-30T03:29:29.534Z,8.67
2019-05-30T03:30:30.011Z,8.73
2019-05-30T03:31:30.325Z,8.78
2019-05-30T03:33:01.853Z,8.71
2019-05-30T03:33:38.787Z,8.78
2019-05-30T03:34:29.722Z,8.70
2019-05-30T03:35:35.465Z,8.69
2019-05-30T03:36:31.882Z,8.73
2019-05-30T03:37:30.731Z,8.69
2019-05-30T03:38:29.494Z,8.67
2019-05-30T03:39:29.403Z,8.64
2019-05-30T03:40:30.344Z,8.71
2019-05-30T03:41:29.416Z,8.69
2019-05-30T03:42:29.414Z,8.84
2019-05-30T03:43:29.429Z,8.82
2019-05-30T03:44:29.361Z,8.76
2019-05-30T03:45:29.344Z,8.76
2019-05-30T03:46:29.346Z,8.74
2019-05-30T03:47:29.345Z,8.73
2019-05-30T03:48:29.329Z,8.71
2019-05-30T03:49:29.340Z,8.76
2019-05-30T03:50:29.296Z,8.85
2019-05-30T03:51:29.283Z,8.85
2019-05-30T03:52:29.277Z,8.82
2019-05-30T03:53:29.252Z,8.88
2019-05-30T03:54:29.295Z,8.88
2019-05-30T03:55:29.239Z,8.88
2019-05-30T03:56:29.271Z,8.92
2019-05-30T03:57:29.206Z,8.97
2019-05-30T03:58:29.221Z,8.94
2019-05-30T03:59:29.189Z,9.00
2019-05-30T04:00:29.227Z,9.11
2019-05-30T04:01:29.195Z,9.11
2019-05-30T04:02:29.148Z,9.18
2019-05-30T04:03:29.146Z,9.11
2019-05-30T04:04:29.145Z,9.08
2019-05-30T04:05:29.168Z,9.10
2019-05-30T04:06:29.128Z,9.10
2019-05-30T04:07:29.131Z,9.21
2019-05-30T04:08:29.085Z,9.23
2019-05-30T04:09:29.095Z,9.21
2019-05-30T04:10:29.107Z,9.22
2019-05-30T04:11:29.062Z,9.28
2019-05-30T04:12:29.068Z,9.21
2019-05-30T04:13:29.060Z,9.29
2019-05-30T04:14:29.027Z,9.31
2019-05-30T04:15:29.027Z,9.32
2019-05-30T04:16:29.036Z,9.34
2019-05-30T04:17:29.000Z,9.37
2019-05-30T04:18:29.007Z,9.29
2019-05-30T04:19:28.983Z,9.31
2019-05-30T04:20:28.965Z,9.34
2019-05-30T04:21:29.023Z,9.39
2019-05-30T04:22:28.933Z,9.43
2019-05-30T04:23:28.933Z,9.56
2019-05-30T04:24:28.943Z,9.56
2019-05-30T04:25:28.901Z,9.59
2019-05-30T04:26:28.912Z,9.73
2019-05-30T04:27:28.911Z,9.64
2019-05-30T04:28:28.867Z,9.66
2019-05-30T04:29:28.865Z,9.83
2019-05-30T04:30:28.879Z,9.77
2019-05-30T04:31:28.835Z,9.82
2019-05-30T04:32:28.895Z,9.89
2019-05-30T04:33:33.096Z,10.04
2019-05-30T04:34:28.806Z,10.02
2019-05-30T04:35:28.802Z,10.10
2019-05-30T04:36:28.812Z,10.19
2019-05-30T04:37:28.774Z,10.17
2019-05-30T04:38:29.288Z,10.33
2019-05-30T04:39:28.745Z,10.40
2019-05-30T04:40:28.744Z,10.48
2019-05-30T04:41:28.744Z,10.59
2019-05-30T04:42:28.707Z,10.69
2019-05-30T04:43:28.766Z,10.72
2019-05-30T04:44:28.717Z,10.67
2019-05-30T04:45:28.719Z,10.71
2019-05-30T04:46:28.673Z,10.81
2019-05-30T04:47:28.685Z,10.81
2019-05-30T04:48:28.646Z,10.90
2019-05-30T04:49:28.691Z,10.96
2019-05-30T04:50:28.663Z,11.04
2019-05-30T04:51:28.610Z,11.07
2019-05-30T04:52:28.611Z,11.05
2019-05-30T04:53:28.629Z,11.23
2019-05-30T04:54:28.631Z,11.30
2019-05-30T04:55:28.583Z,11.26
2019-05-30T04:56:28.589Z,11.47
2019-05-30T04:57:28.546Z,11.47
2019-05-30T04:58:28.552Z,11.51
2019-05-30T04:59:28.562Z,11.44
2019-05-30T05:00:28.576Z,11.52
2019-05-30T05:01:28.528Z,11.45
2019-05-30T05:02:28.492Z,11.65
2019-05-30T05:03:44.558Z,11.65
2019-05-30T05:04:28.489Z,11.66
2019-05-30T05:05:28.488Z,11.77
2019-05-30T05:06:28.461Z,11.84
2019-05-30T05:07:28.459Z,11.90
2019-05-30T05:08:28.513Z,11.95
2019-05-30T05:09:28.421Z,11.99
2019-05-30T05:10:28.486Z,12.06
2019-05-30T05:11:28.397Z,12.12
2019-05-30T05:12:28.393Z,12.06
2019-05-30T05:13:28.392Z,12.15
2019-05-30T05:14:28.357Z,12.09
2019-05-30T05:15:28.356Z,12.17
2019-05-30T05:16:35.566Z,12.29
2019-05-30T05:17:28.380Z,12.28
2019-05-30T05:18:28.336Z,12.32
2019-05-30T05:19:28.324Z,12.37
2019-05-30T05:20:28.289Z,12.49
2019-05-30T05:21:28.292Z,12.45
2019-05-30T05:22:28.315Z,12.46
2019-05-30T05:23:28.263Z,12.45
2019-05-30T05:24:28.271Z,12.50
2019-05-30T05:25:28.281Z,12.61
2019-05-30T05:26:28.222Z,12.60
2019-05-30T05:27:28.287Z,12.61
2019-05-30T05:28:28.236Z,12.75
2019-05-30T05:29:28.202Z,12.73
2019-05-30T05:30:28.209Z,12.83
2019-05-30T05:31:28.197Z,12.87
2019-05-30T05:32:28.159Z,12.93
2019-05-30T05:33:28.213Z,12.94
2019-05-30T05:34:28.141Z,13.00
2019-05-30T05:35:28.170Z,13.04
2019-05-30T05:36:28.133Z,13.01
2019-05-30T05:37:28.142Z,13.05
2019-05-30T05:38:28.528Z,13.15
2019-05-30T05:39:28.395Z,13.15
2019-05-30T05:40:28.540Z,13.27
2019-05-30T05:41:28.641Z,13.28
2019-05-30T05:42:29.912Z,13.42
2019-05-30T05:43:28.698Z,13.35
2019-05-30T05:44:28.737Z,13.46
2019-05-30T05:45:28.781Z,13.49
2019-05-30T05:46:28.729Z,13.50
2019-05-30T05:47:28.863Z,13.49
2019-05-30T05:48:28.834Z,13.57
2019-05-30T05:49:28.876Z,13.67
2019-05-30T05:50:28.782Z,13.72
2019-05-30T05:51:29.057Z,13.70
2019-05-30T05:52:28.889Z,13.79
2019-05-30T05:53:29.039Z,13.86
2019-05-30T05:54:29.207Z,13.96
2019-05-30T05:55:28.943Z,13.99
2019-05-30T05:56:29.059Z,14.07
2019-05-30T05:57:29.105Z,14.05
2019-05-30T05:58:29.245Z,14.07
2019-05-30T05:59:27.875Z,14.22
2019-05-30T06:00:27.899Z,14.20
2019-05-30T06:01:27.849Z,14.20
2019-05-30T06:02:27.842Z,14.29
2019-05-30T06:03:28.319Z,14.28
2019-05-30T06:04:27.848Z,14.40
2019-05-30T06:05:28.465Z,14.44
2019-05-30T06:06:27.801Z,14.41
2019-05-30T06:07:28.617Z,14.51
2019-05-30T06:08:27.806Z,14.54
2019-05-30T06:09:28.767Z,14.58
2019-05-30T06:10:28.037Z,14.60
2019-05-30T06:11:28.651Z,14.65
2019-05-30T06:12:27.949Z,14.70
2019-05-30T06:13:28.981Z,14.70
2019-05-30T06:14:28.123Z,14.78
2019-05-30T06:15:27.717Z,14.78
2019-05-30T06:16:28.410Z,14.86
2019-05-30T06:17:27.660Z,14.84
2019-05-30T06:18:28.434Z,14.86
2019-05-30T06:19:27.686Z,14.85
2019-05-30T06:20:27.655Z,14.79
2019-05-30T06:21:27.651Z,14.82
2019-05-30T06:22:27.663Z,14.84
2019-05-30T06:23:27.822Z,14.81
2019-05-30T06:24:27.981Z,14.88
2019-05-30T06:25:32.092Z,14.97
2019-05-30T06:26:28.036Z,14.97
2019-05-30T06:27:28.094Z,14.97
2019-05-30T06:28:28.221Z,14.99
2019-05-30T06:29:28.377Z,14.97
2019-05-30T06:30:28.788Z,15.09
2019-05-30T06:31:28.656Z,15.09
2019-05-30T06:32:28.701Z,15.15
2019-05-30T06:33:27.492Z,15.17
2019-05-30T06:34:36.683Z,15.22
2019-05-30T06:35:29.404Z,15.21
2019-05-30T06:36:27.463Z,15.29
2019-05-30T06:37:27.462Z,15.29
2019-05-30T06:38:27.470Z,15.40
2019-05-30T06:39:27.649Z,15.44
2019-05-30T06:40:30.409Z,15.46
2019-05-30T06:41:27.729Z,15.44
2019-05-30T06:42:28.234Z,15.46
2019-05-30T06:43:28.241Z,15.54
2019-05-30T06:44:28.122Z,15.51
2019-05-30T06:45:28.416Z,15.55
2019-05-30T06:46:28.389Z,15.59
2019-05-30T06:47:28.389Z,15.59
2019-05-30T06:48:28.699Z,15.55
2019-05-30T06:49:28.914Z,15.54
2019-05-30T06:50:27.336Z,15.55
2019-05-30T06:51:27.291Z,15.57
2019-05-30T06:52:27.289Z,15.55
2019-05-30T06:53:27.372Z,15.59
2019-05-30T06:54:27.816Z,15.61
2019-05-30T06:55:27.383Z,15.70
2019-05-30T06:56:27.518Z,15.67
2019-05-30T06:57:27.335Z,15.77
2019-05-30T06:58:41.500Z,15.82
2019-05-30T06:59:27.686Z,15.79
2019-05-30T07:00:28.100Z,15.90
2019-05-30T07:01:27.946Z,15.88
2019-05-30T07:02:28.346Z,15.97
2019-05-30T07:03:28.366Z,16.00
2019-05-30T07:04:28.444Z,15.97
2019-05-30T07:05:29.603Z,16.01
2019-05-30T07:06:28.173Z,16.10
2019-05-30T07:07:27.382Z,16.16
2019-05-30T07:08:27.119Z,16.17
2019-05-30T07:09:27.097Z,16.17
2019-05-30T07:10:27.095Z,16.21
2019-05-30T07:11:27.114Z,16.21
2019-05-30T07:12:27.535Z,16.26
2019-05-30T07:13:27.353Z,16.20
2019-05-30T07:14:27.302Z,16.20
2019-05-30T07:15:27.269Z,16.21
2019-05-30T07:16:27.388Z,16.41
2019-05-30T07:17:27.434Z,16.29
2019-05-30T07:18:27.554Z,16.33
2019-05-30T07:19:27.425Z,16.38
2019-05-30T07:20:27.491Z,16.42
2019-05-30T07:21:27.663Z,16.50
2019-05-30T07:22:27.758Z,16.58
2019-05-30T07:23:27.857Z,16.54
2019-05-30T07:24:27.749Z,16.65
2019-05-30T07:25:27.861Z,16.68
2019-05-30T07:26:27.700Z,16.72
2019-05-30T07:27:27.814Z,16.72
2019-05-30T07:28:27.896Z,16.79
2019-05-30T07:29:27.994Z,16.79
2019-05-30T07:30:27.939Z,16.84
2019-05-30T07:31:27.972Z,16.84
2019-05-30T07:32:27.878Z,16.93
2019-05-30T07:33:27.822Z,16.94
2019-05-30T07:34:28.037Z,16.93
2019-05-30T07:35:27.891Z,16.96
2019-05-30T07:36:26.810Z,17.06
2019-05-30T07:37:26.819Z,17.04
2019-05-30T07:38:26.765Z,16.99
2019-05-30T07:39:29.741Z,17.05
2019-05-30T07:40:26.794Z,17.08
2019-05-30T07:41:26.983Z,17.09
2019-05-30T07:42:26.759Z,17.12
2019-05-30T07:43:28.292Z,17.19
2019-05-30T07:44:26.703Z,17.19
2019-05-30T07:45:26.810Z,17.20
2019-05-30T07:46:26.828Z,17.27
2019-05-30T07:47:28.005Z,17.30
2019-05-30T07:48:26.697Z,17.34
2019-05-30T07:49:26.665Z,17.39
2019-05-30T07:50:26.644Z,17.45
2019-05-30T07:51:26.664Z,17.39
2019-05-30T07:52:26.638Z,17.48
2019-05-30T07:53:26.721Z,17.64
2019-05-30T07:54:26.872Z,17.44
2019-05-30T07:55:26.939Z,17.63
2019-05-30T07:56:26.947Z,17.70
2019-05-30T07:57:26.596Z,17.71
2019-05-30T07:58:27.030Z,17.72
2019-05-30T07:59:26.571Z,17.76
2019-05-30T08:00:27.443Z,17.74
2019-05-30T08:01:26.515Z,17.79
2019-05-30T08:02:27.487Z,17.86
2019-05-30T08:03:26.534Z,17.82
2019-05-30T08:04:27.424Z,17.90
2019-05-30T08:05:26.746Z,17.95
2019-05-30T08:06:27.434Z,17.97
2019-05-30T08:07:26.581Z,17.97
2019-05-30T08:08:28.037Z,17.94
2019-05-30T08:09:26.810Z,18.05
2019-05-30T08:10:27.675Z,18.10
2019-05-30T08:11:26.784Z,18.10
2019-05-30T08:12:26.389Z,18.05
2019-05-30T08:13:26.987Z,18.20
2019-05-30T08:14:26.998Z,18.31
2019-05-30T08:15:27.300Z,18.31
2019-05-30T08:16:27.087Z,18.33
2019-05-30T08:17:27.316Z,18.35
2019-05-30T08:18:27.455Z,18.34
2019-05-30T08:19:27.661Z,18.35
2019-05-30T08:20:27.532Z,18.52
2019-05-30T08:21:26.339Z,18.60
2019-05-30T08:22:26.310Z,18.50
2019-05-30T08:23:26.298Z,18.58
2019-05-30T08:24:26.266Z,18.58
2019-05-30T08:25:26.335Z,18.60
2019-05-30T08:26:26.272Z,18.75
2019-05-30T08:27:26.250Z,18.68
2019-05-30T08:28:26.246Z,18.70
2019-05-30T08:29:26.205Z,18.70
2019-05-30T08:30:26.193Z,18.77
2019-05-30T08:31:26.265Z,18.68
2019-05-30T08:32:26.183Z,18.74
2019-05-30T08:33:26.183Z,18.78
2019-05-30T08:34:26.177Z,18.83
2019-05-30T08:35:39.208Z,18.86
2019-05-30T08:36:26.133Z,18.83
2019-05-30T08:37:26.137Z,18.89
2019-05-30T08:38:26.112Z,18.88
2019-05-30T08:39:26.121Z,18.99
2019-05-30T08:40:26.124Z,18.93
2019-05-30T08:41:26.129Z,19.00
2019-05-30T08:42:27.968Z,19.09
2019-05-30T08:43:26.072Z,18.98
2019-05-30T08:44:26.050Z,19.09
2019-05-30T08:45:26.054Z,19.14
2019-05-30T08:46:26.061Z,19.29
2019-05-30T08:47:26.006Z,19.26
2019-05-30T08:48:26.068Z,19.33
2019-05-30T08:49:26.010Z,19.22
2019-05-30T08:50:25.989Z,19.22
2019-05-30T08:51:25.991Z,19.30
2019-05-30T08:52:25.956Z,19.30
2019-05-30T08:53:26.010Z,19.21
2019-05-30T08:54:25.940Z,19.31
2019-05-30T08:55:25.919Z,19.39
2019-05-30T08:56:28.420Z,19.47
2019-05-30T08:57:25.922Z,19.55
2019-05-30T08:58:25.930Z,19.48
2019-05-30T08:59:25.938Z,19.48
2019-05-30T09:00:25.889Z,19.58
2019-05-30T09:01:25.901Z,19.45
2019-05-30T09:02:25.858Z,19.58
2019-05-30T09:03:25.867Z,19.66
2019-05-30T09:04:25.878Z,19.58
2019-05-30T09:05:25.813Z,19.64
2019-05-30T09:06:25.818Z,19.59
2019-05-30T09:07:25.797Z,19.66
2019-05-30T09:08:25.794Z,19.64
2019-05-30T09:09:25.805Z,19.73
2019-05-30T09:10:25.806Z,19.70
2019-05-30T09:11:25.759Z,19.73
2019-05-30T09:12:25.759Z,19.92
2019-05-30T09:13:25.725Z,19.92
2019-05-30T09:14:25.778Z,19.95
2019-05-30T09:15:25.785Z,19.99
2019-05-30T09:16:25.688Z,19.96
2019-05-30T09:17:25.690Z,20.06
2019-05-30T09:18:25.701Z,19.96
2019-05-30T09:19:25.665Z,19.92
2019-05-30T09:20:25.680Z,19.92
2019-05-30T09:21:25.684Z,19.96
2019-05-30T09:22:25.642Z,20.03
2019-05-30T09:23:25.606Z,19.99
2019-05-30T09:24:25.629Z,20.04
2019-05-30T09:25:25.598Z,20.04
2019-05-30T09:26:25.656Z,20.04
2019-05-30T09:27:25.569Z,20.10
2019-05-30T09:28:25.563Z,20.19
2019-05-30T09:29:25.568Z,20.13
2019-05-30T09:30:25.549Z,20.19
2019-05-30T09:31:25.534Z,20.25
2019-05-30T09:32:25.556Z,20.24
2019-05-30T09:33:25.516Z,20.14
2019-05-30T09:34:25.511Z,20.14
2019-05-30T09:35:25.483Z,20.21
2019-05-30T09:36:25.482Z,20.16
2019-05-30T09:37:25.480Z,20.34
2019-05-30T09:38:25.463Z,20.22
2019-05-30T09:39:25.436Z,20.29
2019-05-30T09:40:25.443Z,20.36
2019-05-30T09:41:25.419Z,20.44
2019-05-30T09:42:25.456Z,20.58
2019-05-30T09:43:25.421Z,20.52
2019-05-30T09:44:25.419Z,20.52
2019-05-30T09:45:25.375Z,20.63
2019-05-30T09:46:25.420Z,20.56
2019-05-30T09:47:25.357Z,20.58
2019-05-30T09:48:25.352Z,20.58
2019-05-30T09:49:25.336Z,20.51
2019-05-30T09:50:25.318Z,20.67
2019-05-30T09:51:25.381Z,20.72
2019-05-30T09:52:25.373Z,20.81
2019-05-30T09:53:25.294Z,20.65
2019-05-30T09:54:25.285Z,20.66
2019-05-30T09:55:25.268Z,20.63
2019-05-30T09:56:25.313Z,20.65
2019-05-30T09:57:25.259Z,20.65
2019-05-30T09:58:25.227Z,20.70
2019-05-30T09:59:25.223Z,20.82
2019-05-30T10:00:25.225Z,20.77
2019-05-30T10:01:25.238Z,20.70
2019-05-30T10:02:25.214Z,20.82
2019-05-30T10:03:25.191Z,20.80
2019-05-30T10:04:25.168Z,20.85
2019-05-30T10:05:25.167Z,20.96
2019-05-30T10:06:29.351Z,20.93
2019-05-30T10:07:25.188Z,20.96
2019-05-30T10:08:25.148Z,20.95
2019-05-30T10:09:25.132Z,21.06
2019-05-30T10:10:25.102Z,21.07
2019-05-30T10:11:25.136Z,21.07
2019-05-30T10:12:25.113Z,21.11
2019-05-30T10:13:25.115Z,21.15
2019-05-30T10:14:25.060Z,21.11
2019-05-30T10:15:25.035Z,21.17
2019-05-30T10:16:25.041Z,21.21
2019-05-30T10:17:25.047Z,21.20
2019-05-30T10:18:25.029Z,21.17
2019-05-30T10:19:25.020Z,21.27
2019-05-30T10:20:25.020Z,21.32
2019-05-30T10:21:24.972Z,21.20
2019-05-30T10:22:25.050Z,21.35
2019-05-30T10:23:24.953Z,21.35
2019-05-30T10:24:24.957Z,21.43
2019-05-30T10:25:24.987Z,21.39
2019-05-30T10:26:24.965Z,21.51
2019-05-30T10:27:24.914Z,21.46
2019-05-30T10:28:24.918Z,21.46
2019-05-30T10:29:24.891Z,21.45
2019-05-30T10:30:24.942Z,21.58
2019-05-30T10:31:24.859Z,21.50
2019-05-30T10:32:24.868Z,21.54
2019-05-30T10:33:24.917Z,21.48
2019-05-30T10:34:24.851Z,21.55
2019-05-30T10:35:24.861Z,21.66
2019-05-30T10:36:24.818Z,21.60
2019-05-30T10:37:24.799Z,21.48
2019-05-30T10:38:24.795Z,21.33
2019-05-30T10:39:24.787Z,21.29
2019-05-30T10:40:24.802Z,21.33
2019-05-30T10:41:24.762Z,21.42
2019-05-30T10:42:24.811Z,21.50
2019-05-30T10:43:24.737Z,21.42
2019-05-30T10:44:24.725Z,21.40
2019-05-30T10:45:24.725Z,21.46
2019-05-30T10:46:24.732Z,21.40
2019-05-30T10:47:24.707Z,21.39
2019-05-30T10:48:24.713Z,21.36
2019-05-30T10:49:34.295Z,21.45
2019-05-30T10:50:24.656Z,21.48
2019-05-30T10:51:24.688Z,21.54
2019-05-30T10:52:24.631Z,21.48
2019-05-30T10:53:24.642Z,21.48
2019-05-30T10:54:24.608Z,21.51
2019-05-30T10:55:24.597Z,21.60
2019-05-30T10:56:24.593Z,21.70
2019-05-30T10:57:24.607Z,21.75
2019-05-30T10:58:24.570Z,21.67
2019-05-30T10:59:24.674Z,21.67
2019-05-30T11:00:24.574Z,21.69
2019-05-30T11:01:24.534Z,21.73
2019-05-30T11:02:24.640Z,21.75
2019-05-30T11:03:24.538Z,21.91
2019-05-30T11:04:24.514Z,21.83
2019-05-30T11:05:24.509Z,21.79
2019-05-30T11:06:24.520Z,21.82
2019-05-30T11:07:25.076Z,21.91
2019-05-30T11:08:24.545Z,21.85
2019-05-30T11:09:24.487Z,21.99
2019-05-30T11:10:24.476Z,21.91
2019-05-30T11:11:24.441Z,21.91
2019-05-30T11:12:24.452Z,21.92
2019-05-30T11:13:24.474Z,21.89
2019-05-30T11:14:24.407Z,21.89
2019-05-30T11:15:24.388Z,21.85
2019-05-30T11:16:24.385Z,21.85
2019-05-30T11:17:24.387Z,21.91
2019-05-30T11:18:24.408Z,21.96
2019-05-30T11:19:24.347Z,21.96
2019-05-30T11:20:24.352Z,21.93
2019-05-30T11:21:24.322Z,21.99
2019-05-30T11:22:24.392Z,22.08
2019-05-30T11:23:24.328Z,22.04
2019-05-30T11:24:24.375Z,22.15
2019-05-30T11:25:24.291Z,22.10
2019-05-30T11:26:24.288Z,22.18
2019-05-30T11:27:24.258Z,22.08
2019-05-30T11:28:24.265Z,22.17
2019-05-30T11:29:24.276Z,22.14
2019-05-30T11:30:24.228Z,22.18
2019-05-30T11:31:24.219Z,22.17
2019-05-30T11:32:24.231Z,22.22
2019-05-30T11:33:24.189Z,22.22
2019-05-30T11:34:24.242Z,22.18
2019-05-30T11:35:24.193Z,22.17
2019-05-30T11:36:24.159Z,22.18
2019-05-30T11:37:24.165Z,22.17
2019-05-30T11:38:24.155Z,22.13
2019-05-30T11:39:24.130Z,22.13
2019-05-30T11:40:24.128Z,22.15
2019-05-30T11:41:24.119Z,22.15
2019-05-30T11:42:24.087Z,22.15
2019-05-30T11:43:24.092Z,22.11
2019-05-30T11:44:24.091Z,21.96
2019-05-30T11:45:24.108Z,21.93
2019-05-30T11:46:24.108Z,21.95
2019-05-30T11:47:24.057Z,22.02
2019-05-30T11:48:24.114Z,21.92
2019-05-30T11:49:24.030Z,21.85
2019-05-30T11:50:23.998Z,21.82
2019-05-30T11:51:24.003Z,21.93
2019-05-30T11:52:24.014Z,21.95
2019-05-30T11:53:23.974Z,21.93
2019-05-30T11:54:23.978Z,22.04
2019-05-30T11:55:23.969Z,22.00
2019-05-30T11:56:23.933Z,22.10
2019-05-30T11:57:23.942Z,22.25
2019-05-30T11:58:23.926Z,22.28
2019-05-30T11:59:23.896Z,22.25
2019-05-30T12:00:23.904Z,22.30
2019-05-30T12:01:23.901Z,22.36
2019-05-30T12:02:23.956Z,22.32
2019-05-30T12:03:23.882Z,22.22
2019-05-30T12:04:23.868Z,22.11
2019-05-30T12:05:23.841Z,22.15
2019-05-30T12:06:23.843Z,22.25
2019-05-30T12:07:35.773Z,22.28
2019-05-30T12:08:23.840Z,22.30
2019-05-30T12:09:23.817Z,22.29
2019-05-30T12:10:23.809Z,22.33
2019-05-30T12:11:23.772Z,22.36
2019-05-30T12:12:23.770Z,22.38
2019-05-30T12:13:23.827Z,22.41
2019-05-30T12:14:23.747Z,22.59
2019-05-30T12:15:23.753Z,22.51
2019-05-30T12:16:23.802Z,22.48
2019-05-30T12:17:23.711Z,22.54
2019-05-30T12:18:23.727Z,22.59
2019-05-30T12:19:23.715Z,22.63
2019-05-30T12:20:23.671Z,22.45
2019-05-30T12:21:23.680Z,22.41
2019-05-30T12:22:23.644Z,22.50
2019-05-30T12:23:23.650Z,22.51
2019-05-30T12:24:23.697Z,22.45
2019-05-30T12:25:23.624Z,22.35
2019-05-30T12:26:23.611Z,22.32
2019-05-30T12:27:23.626Z,22.25
2019-05-30T12:28:23.586Z,22.30
2019-05-30T12:29:23.578Z,22.28
2019-05-30T12:30:24.047Z,22.35
2019-05-30T12:31:23.548Z,22.17
2019-05-30T12:32:23.549Z,22.08
2019-05-30T12:33:23.573Z,22.17
2019-05-30T12:34:23.523Z,22.06
2019-05-30T12:35:23.566Z,21.98
2019-05-30T12:36:23.497Z,21.89
2019-05-30T12:37:23.672Z,21.92
2019-05-30T12:38:23.481Z,21.95
2019-05-30T12:39:23.481Z,21.98
2019-05-30T12:40:23.458Z,22.00
2019-05-30T12:41:23.489Z,22.08
2019-05-30T12:42:23.443Z,22.17
2019-05-30T12:43:23.414Z,22.23
2019-05-30T12:44:23.420Z,22.38
2019-05-30T12:45:23.419Z,22.39
2019-05-30T12:46:23.441Z,22.47
2019-05-30T12:47:23.376Z,22.57
2019-05-30T12:48:23.386Z,22.66
2019-05-30T12:49:23.349Z,22.65
2019-05-30T12:50:23.348Z,22.63
2019-05-30T12:51:23.355Z,22.65
2019-05-30T12:52:23.354Z,22.59
2019-05-30T12:53:23.306Z,22.48
2019-05-30T12:54:23.369Z,22.45
2019-05-30T12:55:23.287Z,22.53
2019-05-30T12:56:23.283Z,22.44
2019-05-30T12:57:23.299Z,22.47
2019-05-30T12:58:23.254Z,22.38
2019-05-30T12:59:23.317Z,22.45
2019-05-30T13:00:23.309Z,22.50
2019-05-30T13:01:23.265Z,22.51